createdAt,value
2022-10-31T00:01:32.927Z,101012.88
2022-10-31T00:04:00.642Z,101003.38
2022-10-31T00:06:28.844Z,100993.63
2022-10-31T00:09:01.416Z,100977.94
2022-10-31T00:11:29.902Z,100997.34
2022-10-31T00:14:01.126Z,101001.72
2022-10-31T00:16:30.043Z,101012.69
2022-10-31T00:19:00.426Z,100982.91
2022-10-31T00:21:28.607Z,100947.81
2022-10-31T00:23:56.343Z,100982.06
2022-10-31T00:26:24.255Z,100981.25
2022-10-31T00:28:52.184Z,101011.59
2022-10-31T00:31:19.945Z,101010.47
2022-10-31T00:33:47.631Z,100987.38
2022-10-31T00:36:20.226Z,101014.34
2022-10-31T00:38:48.772Z,101015.75
2022-10-31T00:41:18.052Z,100953.28
2022-10-31T00:43:45.798Z,101011.06
2022-10-31T00:46:14.582Z,100972.38
2022-10-31T00:48:43.405Z,101016.06
2022-10-31T00:51:11.606Z,100979.97
2022-10-31T00:53:40.780Z,101024.28
2022-10-31T00:56:08.563Z,101012.50
2022-10-31T00:58:38.097Z,100991.25
2022-10-31T01:01:06.041Z,100993.03
2022-10-31T01:03:36.421Z,101007.34
2022-10-31T01:06:08.437Z,101007.03
2022-10-31T01:08:37.907Z,101009.44
2022-10-31T01:11:15.033Z,101003.16
2022-10-31T01:13:42.887Z,100991.63
2022-10-31T01:16:14.326Z,101004.19
2022-10-31T01:18:42.077Z,100994.22
2022-10-31T01:21:21.419Z,101008.03
2022-10-31T01:23:51.381Z,101001.44
2022-10-31T01:26:31.813Z,101007.19
2022-10-31T01:29:06.660Z,100983.59
2022-10-31T01:31:38.735Z,100969.06
2022-10-31T01:34:07.837Z,100970.94
2022-10-31T01:36:38.784Z,100994.44
2022-10-31T01:39:10.365Z,100990.09
2022-10-31T01:41:41.138Z,100987.34
2022-10-31T01:44:15.647Z,100987.34
2022-10-31T01:46:48.090Z,100983.47
2022-10-31T01:49:37.456Z,100949.00
2022-10-31T01:52:10.954Z,100967.19
2022-10-31T01:54:46.554Z,100957.94
2022-10-31T01:57:16.404Z,100967.06
2022-10-31T01:59:50.452Z,100953.91
2022-10-31T02:02:20.020Z,100981.47
2022-10-31T02:04:48.903Z,100978.94
2022-10-31T02:07:28.620Z,100940.41
2022-10-31T02:10:01.278Z,100979.34
2022-10-31T02:12:31.784Z,100963.25
2022-10-31T02:15:01.864Z,100978.03
2022-10-31T02:17:31.708Z,100978.84
2022-10-31T02:20:22.248Z,100971.44
2022-10-31T02:23:32.967Z,100970.31
2022-10-31T02:26:29.199Z,100974.16
2022-10-31T02:29:16.732Z,100970.94
2022-10-31T02:32:07.444Z,100983.50
2022-10-31T02:34:47.228Z,100968.50
2022-10-31T02:37:35.322Z,100937.06
2022-10-31T02:40:16.120Z,100965.44
2022-10-31T02:45:51.200Z,100967.19
2022-10-31T02:48:28.315Z,100960.56
2022-10-31T02:51:04.856Z,100882.47
2022-10-31T02:53:37.376Z,100952.88
2022-10-31T02:56:19.675Z,100943.84
2022-10-31T02:58:58.668Z,100929.16
2022-10-31T03:01:45.669Z,100946.06
2022-10-31T03:04:13.386Z,100948.00
2022-10-31T03:07:00.788Z,100951.53
2022-10-31T03:09:55.059Z,100917.81
2022-10-31T03:12:29.298Z,100951.81
2022-10-31T03:15:20.791Z,100944.72
2022-10-31T03:18:01.909Z,100949.72
2022-10-31T03:20:43.049Z,100943.25
2022-10-31T03:23:16.203Z,100945.78
2022-10-31T03:25:48.928Z,100930.38
2022-10-31T03:28:23.272Z,100940.13
2022-10-31T03:30:53.459Z,100943.34
2022-10-31T03:33:31.251Z,100948.59
2022-10-31T03:36:04.088Z,100900.59
2022-10-31T03:38:33.767Z,100892.00
2022-10-31T03:41:05.964Z,100934.81
2022-10-31T03:43:41.827Z,100946.97
2022-10-31T03:46:10.138Z,100909.69
2022-10-31T03:48:37.867Z,100953.25
2022-10-31T03:51:17.704Z,100956.31
2022-10-31T03:54:02.598Z,100946.16
2022-10-31T03:56:38.602Z,100952.78
2022-10-31T03:59:20.395Z,100942.97
2022-10-31T04:01:53.122Z,100917.22
2022-10-31T04:04:21.985Z,100874.47
2022-10-31T04:06:52.538Z,100921.28
2022-10-31T04:09:21.726Z,100893.75
2022-10-31T04:11:54.232Z,100952.56
2022-10-31T04:14:55.463Z,100942.53
2022-10-31T04:17:28.801Z,100940.63
2022-10-31T04:19:56.584Z,100921.53
2022-10-31T04:22:24.466Z,100917.81
2022-10-31T04:24:53.532Z,100903.91
2022-10-31T04:27:21.150Z,100935.44
2022-10-31T04:29:50.871Z,100944.34
2022-10-31T04:32:19.476Z,100926.41
2022-10-31T04:34:47.234Z,100935.03
2022-10-31T04:37:15.026Z,100908.72
2022-10-31T04:39:42.715Z,100911.31
2022-10-31T04:42:31.880Z,100942.22
2022-10-31T04:45:02.049Z,100905.16
2022-10-31T04:47:35.402Z,100937.25
2022-10-31T04:50:03.609Z,100887.00
2022-10-31T04:52:31.798Z,100936.44
2022-10-31T04:54:59.527Z,100942.72
2022-10-31T04:57:50.880Z,100940.31
2022-10-31T05:00:22.388Z,100917.28
2022-10-31T05:02:54.134Z,100925.41
2022-10-31T05:05:24.758Z,100931.59
2022-10-31T05:07:52.892Z,100882.25
2022-10-31T05:10:26.657Z,100924.91
2022-10-31T05:13:01.496Z,100915.00
2022-10-31T05:16:06.484Z,100890.78
2022-10-31T05:19:06.790Z,100922.59
2022-10-31T05:21:54.873Z,100936.25
2022-10-31T05:24:22.843Z,100930.78
2022-10-31T05:26:50.822Z,100899.59
2022-10-31T05:29:18.869Z,100891.50
2022-10-31T05:31:46.482Z,100938.28
2022-10-31T05:34:33.859Z,100934.03
2022-10-31T05:37:20.320Z,100910.97
2022-10-31T05:39:48.442Z,100907.63
2022-10-31T05:42:17.727Z,100906.81
2022-10-31T05:44:45.391Z,100911.56
2022-10-31T05:47:21.481Z,100941.34
2022-10-31T05:50:25.409Z,100944.91
2022-10-31T05:53:07.277Z,100882.19
2022-10-31T05:55:40.546Z,100941.25
2022-10-31T05:58:18.052Z,100897.47
2022-10-31T06:00:52.290Z,100939.31
2022-10-31T06:03:20.065Z,100924.84
2022-10-31T06:05:55.381Z,100907.00
2022-10-31T06:08:26.571Z,100933.44
2022-10-31T06:10:55.903Z,100895.38
2022-10-31T06:13:46.513Z,100928.56
2022-10-31T06:16:20.377Z,100911.56
2022-10-31T06:18:48.608Z,100892.63
2022-10-31T06:21:18.945Z,100905.38
2022-10-31T06:23:48.325Z,100960.19
2022-10-31T06:26:51.268Z,100967.28
2022-10-31T06:29:19.029Z,100944.91
2022-10-31T06:32:02.877Z,100950.44
2022-10-31T06:34:32.112Z,100941.34
2022-10-31T06:37:00.337Z,100970.81
2022-10-31T06:39:29.539Z,100965.66
2022-10-31T06:41:57.348Z,100949.47
2022-10-31T06:44:27.351Z,100968.09
2022-10-31T06:47:01.205Z,100914.53
2022-10-31T06:49:52.122Z,100969.81
2022-10-31T06:52:24.480Z,100952.00
2022-10-31T06:54:52.797Z,100966.25
2022-10-31T06:57:22.097Z,100971.16
2022-10-31T06:59:50.448Z,100940.34
2022-10-31T07:02:38.430Z,100957.56
2022-10-31T07:05:07.273Z,100971.53
2022-10-31T07:07:34.864Z,100922.50
2022-10-31T07:10:02.757Z,100959.16
2022-10-31T07:12:45.525Z,100985.66
2022-10-31T07:15:13.228Z,100918.66
2022-10-31T07:17:40.985Z,100970.81
2022-10-31T07:20:11.031Z,100948.44
2022-10-31T07:22:38.981Z,101004.22
2022-10-31T07:25:09.934Z,100911.41
2022-10-31T07:27:42.976Z,100960.22
2022-10-31T07:30:14.397Z,101013.56
2022-10-31T07:32:49.313Z,101018.53
2022-10-31T07:35:21.875Z,101013.75
2022-10-31T07:37:58.470Z,101001.97
2022-10-31T07:40:27.233Z,100987.09
2022-10-31T07:42:55.288Z,100976.22
2022-10-31T07:45:53.316Z,101025.66
2022-10-31T07:48:39.694Z,100981.63
2022-10-31T07:51:26.036Z,100994.06
2022-10-31T07:54:06.215Z,101015.34
2022-10-31T07:56:36.824Z,100975.00
2022-10-31T07:59:04.662Z,100982.78
2022-10-31T08:01:32.391Z,101002.16
2022-10-31T08:04:32.177Z,101010.47
2022-10-31T08:07:22.732Z,100998.63
2022-10-31T08:09:57.446Z,101012.56
2022-10-31T08:12:29.632Z,100943.84
2022-10-31T08:14:57.377Z,101003.91
2022-10-31T08:17:25.115Z,100980.53
2022-10-31T08:19:57.485Z,101018.31
2022-10-31T08:22:41.223Z,101000.00
2022-10-31T08:25:11.735Z,101021.75
2022-10-31T08:27:41.414Z,101005.53
2022-10-31T08:30:17.034Z,100996.69
2022-10-31T08:33:05.538Z,100986.03
2022-10-31T08:35:52.104Z,101023.44
2022-10-31T08:38:38.090Z,100987.63
2022-10-31T08:41:05.995Z,100992.00
2022-10-31T08:43:33.704Z,101009.59
2022-10-31T08:46:01.656Z,100945.97
2022-10-31T08:48:30.515Z,101006.22
2022-10-31T08:50:59.330Z,100936.56
2022-10-31T08:53:28.328Z,100992.19
2022-10-31T08:56:16.021Z,100982.78
2022-10-31T08:58:44.007Z,100979.25
2022-10-31T09:01:12.598Z,100950.25
2022-10-31T09:03:40.480Z,100966.28
2022-10-31T09:06:10.231Z,101004.97
2022-10-31T09:08:38.819Z,100972.56
2022-10-31T09:11:07.917Z,100992.00
2022-10-31T09:14:03.362Z,101001.03
2022-10-31T09:16:33.814Z,100942.59
2022-10-31T09:19:02.988Z,100976.44
2022-10-31T09:21:32.932Z,101004.78
2022-10-31T09:24:00.587Z,100998.56
2022-10-31T09:26:28.319Z,100974.75
2022-10-31T09:29:28.064Z,100984.34
2022-10-31T09:31:59.994Z,100998.13
2022-10-31T09:34:30.154Z,100992.09
2022-10-31T09:37:10.015Z,100985.16
2022-10-31T09:39:37.703Z,100977.03
2022-10-31T09:43:01.510Z,101017.38
2022-10-31T09:45:43.074Z,101008.97
2022-10-31T09:48:44.332Z,101003.78
2022-10-31T09:51:29.487Z,100934.31
2022-10-31T09:54:44.349Z,101009.25
2022-10-31T09:57:15.963Z,100980.31
2022-10-31T09:59:50.440Z,100998.81
2022-10-31T10:02:36.095Z,101007.22
2022-10-31T10:05:17.146Z,100981.47
2022-10-31T10:07:56.589Z,101003.97
2022-10-31T10:11:21.240Z,101003.50
2022-10-31T10:14:15.407Z,101005.22
2022-10-31T10:17:07.725Z,100991.81
2022-10-31T10:20:09.177Z,100963.84
2022-10-31T10:22:36.911Z,100995.44
2022-10-31T10:25:14.071Z,100958.66
2022-10-31T10:28:14.131Z,100992.38
2022-10-31T10:30:45.954Z,100989.03
2022-10-31T10:33:19.462Z,100978.56
2022-10-31T10:35:54.877Z,100957.47
2022-10-31T10:38:53.453Z,100977.91
2022-10-31T10:41:29.330Z,100941.75
2022-10-31T10:43:59.481Z,100971.63
2022-10-31T10:47:00.702Z,100963.06
2022-10-31T10:49:40.981Z,100971.81
2022-10-31T10:52:51.288Z,100940.19
2022-10-31T10:55:34.977Z,100929.88
2022-10-31T10:58:07.404Z,100969.56
2022-10-31T11:00:51.079Z,100972.78
2022-10-31T11:03:20.443Z,100933.78
2022-10-31T11:05:54.871Z,100965.69
2022-10-31T11:08:27.476Z,100968.44
2022-10-31T11:11:02.753Z,100950.09
2022-10-31T11:13:31.620Z,100966.19
2022-10-31T11:16:28.719Z,100949.53
2022-10-31T11:19:09.289Z,100965.03
2022-10-31T11:21:37.088Z,100952.94
2022-10-31T11:24:10.823Z,100945.84
2022-10-31T11:26:40.559Z,100948.56
2022-10-31T11:29:34.564Z,100947.78
2022-10-31T11:32:02.545Z,100948.91
2022-10-31T11:34:34.488Z,100935.47
2022-10-31T11:37:17.195Z,100950.84
2022-10-31T11:39:54.448Z,100948.75
2022-10-31T11:42:24.458Z,100920.53
2022-10-31T11:44:54.633Z,100877.34
2022-10-31T11:47:30.383Z,100934.81
2022-10-31T11:49:58.937Z,100856.50
2022-10-31T11:52:29.473Z,100861.50
2022-10-31T11:55:22.800Z,100881.78
2022-10-31T11:57:52.991Z,100918.88
2022-10-31T12:00:25.635Z,100915.28
2022-10-31T12:03:23.308Z,100869.97
2022-10-31T12:05:55.018Z,100907.22
2022-10-31T12:08:22.991Z,100877.09
2022-10-31T12:10:53.930Z,100901.72
2022-10-31T12:13:35.888Z,100906.09
2022-10-31T12:16:16.134Z,100897.06
2022-10-31T12:18:52.868Z,100894.88
2022-10-31T12:21:32.961Z,100886.50
2022-10-31T12:24:19.312Z,100888.44
2022-10-31T12:27:02.373Z,100887.13
2022-10-31T12:29:51.795Z,100881.66
2022-10-31T12:32:32.030Z,100878.38
2022-10-31T12:35:21.093Z,100860.97
2022-10-31T12:38:02.553Z,100876.78
2022-10-31T12:41:11.056Z,100860.78
2022-10-31T12:43:58.905Z,100803.22
2022-10-31T12:46:56.529Z,100867.78
2022-10-31T12:50:01.862Z,100865.03
2022-10-31T12:52:47.896Z,100856.13
2022-10-31T12:55:32.921Z,100818.75
2022-10-31T12:58:11.164Z,100849.63
2022-10-31T13:00:46.237Z,100836.56
2022-10-31T13:03:35.287Z,100843.25
2022-10-31T13:06:15.006Z,100840.78
2022-10-31T13:09:07.408Z,100823.19
2022-10-31T13:11:47.133Z,100833.88
2022-10-31T13:14:49.231Z,100828.88
2022-10-31T13:17:38.136Z,100794.41
2022-10-31T13:20:14.732Z,100842.75
2022-10-31T13:22:47.483Z,100800.75
2022-10-31T13:25:21.599Z,100831.53
2022-10-31T13:28:03.915Z,100826.84
2022-10-31T13:30:37.688Z,100827.44
2022-10-31T13:33:21.796Z,100829.53
2022-10-31T13:35:52.583Z,100832.56
2022-10-31T13:38:32.020Z,100834.50
2022-10-31T13:41:06.463Z,100829.00
2022-10-31T13:44:04.006Z,100835.63
2022-10-31T13:46:35.109Z,100827.41
2022-10-31T13:49:03.673Z,100803.91
2022-10-31T13:51:36.256Z,100835.50
2022-10-31T13:54:24.371Z,100830.97
2022-10-31T13:56:54.131Z,100829.81
2022-10-31T13:59:32.259Z,100786.88
2022-10-31T14:02:03.480Z,100807.59
2022-10-31T14:04:39.264Z,100827.16
2022-10-31T14:07:32.641Z,100775.22
2022-10-31T14:10:27.501Z,100792.38
2022-10-31T14:13:05.902Z,100819.91
2022-10-31T14:15:34.199Z,100798.34
2022-10-31T14:18:07.949Z,100819.91
2022-10-31T14:20:43.983Z,100777.66
2022-10-31T14:23:36.921Z,100822.25
2022-10-31T14:26:29.419Z,100828.56
2022-10-31T14:29:21.428Z,100810.47
2022-10-31T14:31:56.604Z,100828.88
2022-10-31T14:34:38.764Z,100818.03
2022-10-31T14:37:45.191Z,100828.88
2022-10-31T14:40:25.262Z,100827.75
2022-10-31T14:43:11.504Z,100830.50
2022-10-31T14:46:02.524Z,100835.50
2022-10-31T14:48:54.831Z,100825.16
2022-10-31T14:51:25.611Z,100831.28
2022-10-31T14:53:57.775Z,100745.53
2022-10-31T14:56:35.882Z,100833.34
2022-10-31T14:59:10.865Z,100824.94
2022-10-31T15:01:41.224Z,100811.38
2022-10-31T15:04:24.977Z,100825.63
2022-10-31T15:07:05.536Z,100834.00
2022-10-31T15:09:36.035Z,100835.16
2022-10-31T15:12:33.030Z,100834.50
2022-10-31T15:15:23.207Z,100837.75
2022-10-31T15:17:56.352Z,100822.06
2022-10-31T15:20:27.610Z,100836.94
2022-10-31T15:22:58.043Z,100837.75
2022-10-31T15:25:29.555Z,100823.69
2022-10-31T15:27:57.911Z,100828.38
2022-10-31T15:30:31.792Z,100837.41
2022-10-31T15:32:59.638Z,100836.91
2022-10-31T15:35:29.698Z,100829.78
2022-10-31T15:38:00.164Z,100797.41
2022-10-31T15:40:29.343Z,100795.97
2022-10-31T15:43:00.776Z,100833.19
2022-10-31T15:45:31.358Z,100838.97
2022-10-31T15:48:02.815Z,100834.31
2022-10-31T15:50:38.897Z,100811.97
2022-10-31T15:53:19.224Z,100833.84
2022-10-31T15:56:07.709Z,100839.19
2022-10-31T15:58:52.384Z,100845.47
2022-10-31T16:01:23.572Z,100844.19
2022-10-31T16:04:02.532Z,100843.69
2022-10-31T16:06:35.840Z,100813.75
2022-10-31T16:09:18.945Z,100851.75
2022-10-31T16:11:46.703Z,100821.38
2022-10-31T16:14:14.469Z,100850.16
2022-10-31T16:16:45.203Z,100842.09
2022-10-31T16:19:25.216Z,100809.72
2022-10-31T16:21:56.998Z,100849.22
2022-10-31T16:24:38.362Z,100806.03
2022-10-31T16:27:15.091Z,100823.53
2022-10-31T16:29:45.719Z,100786.00
2022-10-31T16:33:00.992Z,100825.50
2022-10-31T16:35:38.918Z,100849.31
2022-10-31T16:38:06.988Z,100843.16
2022-10-31T16:40:35.818Z,100837.53
2022-10-31T16:43:03.847Z,100805.31
2022-10-31T16:45:33.449Z,100835.94
2022-10-31T16:48:07.654Z,100845.78
2022-10-31T16:50:36.302Z,100839.16
2022-10-31T16:53:19.235Z,100783.50
2022-10-31T16:55:59.627Z,100794.25
2022-10-31T16:58:34.242Z,100827.19
2022-10-31T17:01:07.012Z,100813.69
2022-10-31T17:03:35.106Z,100857.72
2022-10-31T17:06:04.093Z,100821.06
2022-10-31T17:08:35.168Z,100868.03
2022-10-31T17:11:03.178Z,100887.75
2022-10-31T17:13:32.758Z,100903.41
2022-10-31T17:16:04.867Z,100855.63
2022-10-31T17:18:32.720Z,100875.91
2022-10-31T17:21:06.336Z,100898.88
2022-10-31T17:23:34.081Z,100903.06
2022-10-31T17:26:01.903Z,100892.88
2022-10-31T17:28:29.588Z,100881.41
2022-10-31T17:30:59.534Z,100872.91
2022-10-31T17:33:28.102Z,100913.41
2022-10-31T17:35:55.725Z,100868.41
2022-10-31T17:38:23.771Z,100838.97
2022-10-31T17:40:51.583Z,100899.69
2022-10-31T17:43:19.329Z,100890.94
2022-10-31T17:45:47.626Z,100872.03
2022-10-31T17:48:15.199Z,100828.34
2022-10-31T17:50:42.943Z,100863.03
2022-10-31T17:53:10.724Z,100818.50
2022-10-31T17:55:38.443Z,100868.97
2022-10-31T17:58:06.294Z,100847.59
2022-10-31T18:00:34.278Z,100895.19
2022-10-31T18:03:04.089Z,100897.25
2022-10-31T18:05:32.368Z,100927.47
2022-10-31T18:08:03.660Z,100910.97
2022-10-31T18:10:32.457Z,100878.75
2022-10-31T18:13:00.511Z,100927.97
2022-10-31T18:15:28.407Z,100891.19
2022-10-31T18:17:56.129Z,100932.47
2022-10-31T18:20:23.677Z,100914.81
2022-10-31T18:22:52.140Z,100923.03
2022-10-31T18:25:19.728Z,100938.28
2022-10-31T18:27:47.414Z,100941.34
2022-10-31T18:30:15.306Z,100938.44
2022-10-31T18:32:43.467Z,100893.81
2022-10-31T18:35:11.056Z,100936.03
2022-10-31T18:37:38.777Z,100871.75
2022-10-31T18:40:06.996Z,100923.41
2022-10-31T18:42:34.980Z,100934.72
2022-10-31T18:45:11.524Z,100928.88
2022-10-31T18:47:46.334Z,100928.56
2022-10-31T18:50:14.134Z,100941.34
2022-10-31T18:52:42.316Z,100877.88
2022-10-31T18:55:10.201Z,100893.59
2022-10-31T18:57:38.003Z,100922.09
2022-10-31T19:00:06.943Z,100888.41
2022-10-31T19:02:34.793Z,100900.66
2022-10-31T19:05:02.620Z,100922.47
2022-10-31T19:07:30.469Z,100906.94
2022-10-31T19:09:58.132Z,100851.56
2022-10-31T19:12:25.797Z,100922.47
2022-10-31T19:14:53.534Z,100905.97
2022-10-31T19:17:21.337Z,100915.47
2022-10-31T19:19:49.142Z,100919.03
2022-10-31T19:22:16.820Z,100925.22
2022-10-31T19:24:44.558Z,100932.13
2022-10-31T19:27:13.912Z,100901.63
2022-10-31T19:29:43.075Z,100920.72
2022-10-31T19:32:10.900Z,100933.22
2022-10-31T19:34:39.265Z,100926.44
2022-10-31T19:37:06.987Z,100925.47
2022-10-31T19:39:39.808Z,100920.78
2022-10-31T19:42:10.713Z,100866.25
2022-10-31T19:44:38.507Z,100880.84
2022-10-31T19:47:06.104Z,100886.34
2022-10-31T19:49:33.717Z,100871.44
2022-10-31T19:52:01.561Z,100873.72
2022-10-31T19:54:29.128Z,100895.59
2022-10-31T19:56:57.086Z,100896.72
2022-10-31T19:59:26.021Z,100902.53
2022-10-31T20:01:53.746Z,100824.59
2022-10-31T20:04:22.112Z,100922.06
2022-10-31T20:06:50.059Z,100882.38
2022-10-31T20:09:18.164Z,100908.44
2022-10-31T20:11:46.441Z,100918.19
2022-10-31T20:14:17.012Z,100919.00
2022-10-31T20:16:45.720Z,100891.78
2022-10-31T20:19:13.892Z,100927.72
2022-10-31T20:21:41.985Z,100914.41
2022-10-31T20:24:11.141Z,100923.69
2022-10-31T20:26:41.091Z,100915.53
2022-10-31T20:29:12.342Z,100933.41
2022-10-31T20:31:40.327Z,100913.28
2022-10-31T20:34:08.077Z,100927.91
2022-10-31T20:36:36.831Z,100896.66
2022-10-31T20:39:05.214Z,100882.25
2022-10-31T20:41:32.818Z,100871.28
2022-10-31T20:44:00.674Z,100910.16
2022-10-31T20:46:28.533Z,100931.97
2022-10-31T20:48:56.328Z,100926.97
2022-10-31T20:51:27.569Z,100920.06
2022-10-31T20:53:56.770Z,100916.81
2022-10-31T20:56:26.683Z,100919.75
2022-10-31T20:58:56.220Z,100921.03
2022-10-31T21:01:27.594Z,100906.00
2022-10-31T21:03:56.091Z,100922.50
2022-10-31T21:06:23.776Z,100929.59
2022-10-31T21:08:52.176Z,100914.03
2022-10-31T21:11:22.776Z,100936.81
2022-10-31T21:13:51.294Z,100930.50
2022-10-31T21:16:21.334Z,100954.91
2022-10-31T21:18:50.116Z,100959.09
2022-10-31T21:21:32.179Z,100965.41
2022-10-31T21:24:13.788Z,100948.56
2022-10-31T21:26:44.641Z,100955.06
2022-10-31T21:29:13.484Z,100962.81
2022-10-31T21:31:41.773Z,100931.47
2022-10-31T21:34:09.668Z,100988.63
2022-10-31T21:36:39.907Z,100961.59
2022-10-31T21:39:11.493Z,100983.41
2022-10-31T21:41:39.312Z,100979.28
2022-10-31T21:44:06.963Z,101002.28
2022-10-31T21:46:35.256Z,100984.47
2022-10-31T21:49:04.070Z,101007.13
2022-10-31T21:51:34.566Z,101010.44
2022-10-31T21:54:21.082Z,101019.50
2022-10-31T21:56:49.028Z,100989.53
2022-10-31T21:59:16.730Z,100989.41
2022-10-31T22:01:46.490Z,101013.19
2022-10-31T22:04:14.332Z,100953.75
2022-10-31T22:06:43.412Z,101004.38
2022-10-31T22:09:14.192Z,100945.16
2022-10-31T22:11:43.271Z,100988.50
2022-10-31T22:14:13.288Z,100974.72
2022-10-31T22:16:41.567Z,100990.25
2022-10-31T22:19:12.357Z,100985.66
2022-10-31T22:21:46.628Z,100991.16
2022-10-31T22:24:15.373Z,100984.47
2022-10-31T22:26:43.193Z,100978.16
2022-10-31T22:29:14.225Z,100991.97
2022-10-31T22:31:44.592Z,100976.53
2022-10-31T22:34:13.526Z,100994.22
2022-10-31T22:36:42.084Z,100965.56
2022-10-31T22:39:12.965Z,100957.34
2022-10-31T22:41:41.032Z,100981.78
2022-10-31T22:44:08.756Z,100944.50
2022-10-31T22:46:38.677Z,100961.69
2022-10-31T22:49:10.543Z,100895.91
2022-10-31T22:51:39.682Z,100945.69
2022-10-31T22:54:11.506Z,100916.72
2022-10-31T22:56:39.212Z,100935.16
2022-10-31T22:59:07.021Z,100929.34
2022-10-31T23:01:34.760Z,100950.84
2022-10-31T23:04:02.988Z,100942.25
2022-10-31T23:06:32.562Z,100961.06
2022-10-31T23:09:02.002Z,100959.59
2022-10-31T23:11:35.199Z,100966.53
2022-10-31T23:14:14.170Z,100966.53
2022-10-31T23:16:46.287Z,100951.38
2022-10-31T23:19:21.487Z,100963.00
2022-10-31T23:21:54.836Z,100951.53
2022-10-31T23:24:29.646Z,100961.22
2022-10-31T23:27:10.611Z,100887.56
2022-10-31T23:29:58.500Z,100945.88
2022-10-31T23:32:27.212Z,100932.66
2022-10-31T23:35:03.610Z,100942.50
2022-10-31T23:37:34.847Z,100933.47
2022-10-31T23:40:05.196Z,100907.06
2022-10-31T23:42:32.842Z,100877.59
2022-10-31T23:45:00.565Z,100917.41
2022-10-31T23:47:28.279Z,100941.84
2022-10-31T23:49:57.227Z,100920.50
2022-10-31T23:52:24.939Z,100925.50
2022-10-31T23:54:52.678Z,100939.88
2022-10-31T23:57:20.249Z,100956.69
2022-10-31T23:59:48.123Z,100960.25
